Time;durP1;ratioP1;P1;durP2;ratioP2;P2;SDS_P1;SDS_P2;PMS_P1;PMS_P2;Temp;Humidity;BMP_temperature;BMP_pressure;BME280_temperature;BME280_humidity;BME280_pressure;Samples;Min_cycle;Max_cycle;Signal;HPM_P1;HPM_P2
2022/10/20 00:01:09;;;;;;;7.55;4.87;;;;;;;5.46;81.66;101784.48;1705736;82;25953;-80
2022/10/20 00:03:37;;;;;;;10.35;4.62;;;;;;;5.45;81.56;101779.30;1725940;82;27672;-80
2022/10/20 00:06:15;;;;;;;11.73;4.90;;;;;;;5.42;81.59;101779.53;1695928;83;26479;-79
2022/10/20 00:08:44;;;;;;;12.73;5.22;;;;;;;5.41;81.65;101771.19;1704366;83;25775;-81
2022/10/20 00:11:14;;;;;;;11.97;5.33;;;;;;;5.38;81.56;101774.97;1727705;82;25835;-82
2022/10/20 00:13:43;;;;;;;12.25;5.08;;;;;;;5.38;81.64;101776.77;1715043;82;25850;-81
2022/10/20 00:16:09;;;;;;;11.85;5.30;;;;;;;5.35;81.60;101777.86;1702767;82;28318;-79
2022/10/20 00:18:36;;;;;;;11.10;4.87;;;;;;;5.35;81.61;101778.34;1710871;82;25839;-79
2022/10/20 00:21:09;;;;;;;11.38;5.10;;;;;;;5.33;81.64;101772.30;1735205;81;26392;-80
2022/10/20 00:23:35;;;;;;;9.08;4.80;;;;;;;5.32;81.59;101771.45;1708147;82;26243;-79
2022/10/20 00:26:11;;;;;;;10.85;6.10;;;;;;;5.31;81.42;101776.91;1701094;82;25875;-80
2022/10/20 00:28:38;;;;;;;8.93;4.95;;;;;;;5.27;81.37;101780.30;1696531;82;27467;-81
2022/10/20 00:31:05;;;;;;;13.38;5.92;;;;;;;5.25;81.24;101778.73;1712690;82;25802;-80
2022/10/20 00:33:33;;;;;;;9.00;5.60;;;;;;;5.20;81.04;101783.08;1707046;82;25819;-81
2022/10/20 00:36:03;;;;;;;8.25;4.58;;;;;;;5.19;81.08;101789.86;1709674;82;25774;-84
2022/10/20 00:38:30;;;;;;;8.85;4.97;;;;;;;5.16;81.17;101794.07;1731150;82;26150;-81
2022/10/20 00:40:58;;;;;;;11.48;5.50;;;;;;;5.15;81.45;101788.41;1717562;82;27681;-80
2022/10/20 00:43:47;;;;;;;12.50;5.35;;;;;;;5.14;81.67;101788.89;1705934;82;25812;-81
2022/10/20 00:46:21;;;;;;;8.88;4.90;;;;;;;5.15;81.82;101781.78;1693951;83;25826;-80
2022/10/20 00:48:56;;;;;;;10.15;5.25;;;;;;;5.13;81.92;101779.22;1693277;84;26551;-80
2022/10/20 00:51:27;;;;;;;10.05;5.53;;;;;;;5.13;81.95;101781.88;1678463;83;25997;-81
2022/10/20 00:53:58;;;;;;;9.68;5.12;;;;;;;5.16;82.04;101787.44;1699388;84;27687;-80
2022/10/20 00:56:24;;;;;;;10.72;5.78;;;;;;;5.12;81.93;101788.17;1696984;82;25883;-79
2022/10/20 00:58:51;;;;;;;9.43;4.87;;;;;;;5.10;82.06;101788.78;1690886;83;26510;-81
2022/10/20 01:01:18;;;;;;;10.90;5.12;;;;;;;5.11;81.95;101793.62;1698132;83;26400;-81
2022/10/20 01:03:50;;;;;;;10.03;5.78;;;;;;;5.09;81.84;101790.24;1715903;81;25833;-81
2022/10/20 01:06:21;;;;;;;12.10;6.30;;;;;;;5.05;81.70;101786.11;1707922;82;27643;-80
2022/10/20 01:08:50;;;;;;;9.28;5.42;;;;;;;5.03;81.80;101791.55;1714328;83;25795;-79
2022/10/20 01:11:41;;;;;;;10.70;5.55;;;;;;;5.02;82.06;101789.88;1698769;83;25316;-81
2022/10/20 01:14:44;;;;;;;9.98;5.83;;;;;;;5.01;82.09;101791.31;1690717;83;25869;-81
2022/10/20 01:17:27;;;;;;;11.53;5.30;;;;;;;4.99;82.38;101788.78;1671853;83;25736;-81
2022/10/20 01:20:17;;;;;;;10.95;5.80;;;;;;;4.99;82.68;101791.92;1694845;83;27665;-81
2022/10/20 01:23:12;;;;;;;10.75;5.47;;;;;;;4.98;82.43;101789.77;1695631;83;25604;-81
2022/10/20 01:26:06;;;;;;;8.43;4.80;;;;;;;4.96;82.35;101790.34;1732606;80;25874;-81
2022/10/20 01:28:47;;;;;;;13.45;5.62;;;;;;;4.92;82.22;101781.45;1748544;80;26660;-80
2022/10/20 01:31:25;;;;;;;9.70;5.42;;;;;;;4.89;82.24;101773.71;1747815;81;25813;-80
2022/10/20 01:34:04;;;;;;;10.50;5.30;;;;;;;4.88;82.29;101779.97;1704525;82;45430;-79
2022/10/20 01:36:44;;;;;;;10.63;6.12;;;;;;;4.87;82.16;101776.97;1707208;82;26022;-79
2022/10/20 01:39:24;;;;;;;9.93;5.53;;;;;;;4.82;81.82;101776.48;1701078;82;25836;-79
2022/10/20 01:41:55;;;;;;;11.03;5.45;;;;;;;4.78;81.70;101788.31;1680521;84;25838;-81
2022/10/20 01:44:24;;;;;;;;;;;;;;;4.73;81.61;101782.03;1715083;81;25813;-80
2022/10/20 01:46:52;;;;;;;15.43;5.67;;;;;;;4.72;81.68;101783.02;1711548;82;27473;-80
2022/10/20 01:49:19;;;;;;;10.78;6.05;;;;;;;4.68;81.80;101774.42;1749348;80;25847;-81
2022/10/20 01:51:45;;;;;;;11.00;5.42;;;;;;;4.67;81.96;101777.20;1757961;80;25300;-80
2022/10/20 01:54:25;;;;;;;12.53;6.03;;;;;;;4.67;82.18;101779.39;1739414;80;25766;-81
2022/10/20 01:57:00;;;;;;;13.55;5.25;;;;;;;4.67;82.48;101773.23;1734127;81;25790;-80
2022/10/20 01:59:47;;;;;;;11.53;5.20;;;;;;;4.67;82.41;101776.73;1742666;80;28234;-79
2022/10/20 02:02:34;;;;;;;12.50;6.12;;;;;;;4.66;82.50;101771.05;1739923;80;25900;-81
2022/10/20 02:05:12;;;;;;;9.20;4.78;;;;;;;4.65;82.40;101774.69;1736874;81;25764;-81
2022/10/20 02:07:40;;;;;;;8.95;5.03;;;;;;;4.64;82.55;101769.00;1676664;84;26970;-80
2022/10/20 02:10:12;;;;;;;10.80;5.15;;;;;;;4.61;82.42;101763.95;1731189;81;25821;-79
2022/10/20 02:12:41;;;;;;;9.78;5.53;;;;;;;4.62;82.37;101769.61;1690490;83;27490;-80
2022/10/20 02:15:11;;;;;;;8.75;5.10;;;;;;;4.58;82.35;101766.83;1695100;82;26490;-82
2022/10/20 02:17:40;;;;;;;10.13;5.28;;;;;;;4.56;82.20;101764.78;1697284;83;26563;-80
2022/10/20 02:20:08;;;;;;;12.00;5.33;;;;;;;4.52;82.23;101758.50;1699611;84;26506;-79
2022/10/20 02:22:35;;;;;;;9.13;5.25;;;;;;;4.55;82.36;101770.22;1700125;84;26552;-81
2022/10/20 02:25:02;;;;;;;10.20;4.85;;;;;;;4.53;82.18;101766.34;1679057;84;26546;-80
2022/10/20 02:27:38;;;;;;;12.73;5.20;;;;;;;4.50;82.08;101762.61;1700661;83;25871;-80
2022/10/20 02:30:09;;;;;;;11.55;5.80;;;;;;;4.48;81.87;101759.23;1700640;83;25700;-82
2022/10/20 02:32:40;;;;;;;10.18;4.70;;;;;;;4.44;81.52;101765.75;1692308;82;25893;-80
2022/10/20 02:35:13;;;;;;;8.60;5.30;;;;;;;4.39;81.40;101767.91;1692999;83;25761;-81
2022/10/20 02:37:40;;;;;;;11.60;6.08;;;;;;;4.35;81.36;101770.91;1687699;82;27536;-80
2022/10/20 02:40:07;;;;;;;10.35;5.12;;;;;;;4.28;81.05;101771.86;1699933;82;25912;-80
2022/10/20 02:42:33;;;;;;;8.18;5.20;;;;;;;4.23;81.02;101767.88;1700652;82;25865;-81
2022/10/20 02:44:59;;;;;;;6.85;4.60;;;;;;;4.19;81.04;101771.23;1699467;82;25795;-80
2022/10/20 02:47:26;;;;;;;9.00;5.10;;;;;;;4.17;81.27;101775.80;1693118;82;25775;-81
2022/10/20 02:49:52;;;;;;;10.03;5.20;;;;;;;4.15;81.22;101779.56;1699938;82;27590;-80
2022/10/20 02:52:18;;;;;;;6.75;4.22;;;;;;;4.13;81.21;101773.53;1705359;83;26250;-80
2022/10/20 02:54:45;;;;;;;7.78;5.00;;;;;;;4.10;81.12;101773.75;1692705;83;26475;-81
2022/10/20 02:57:11;;;;;;;8.43;5.17;;;;;;;4.10;81.40;101776.41;1705849;82;25845;-80
2022/10/20 02:59:37;;;;;;;11.78;6.28;;;;;;;4.08;81.64;101776.53;1701212;82;25340;-80
2022/10/20 03:02:04;;;;;;;7.87;5.03;;;;;;;4.07;81.90;101781.45;1689048;82;27438;-83
2022/10/20 03:04:30;;;;;;;8.95;5.67;;;;;;;4.05;81.93;101785.18;1701019;84;25865;-80
2022/10/20 03:06:56;;;;;;;9.43;5.97;;;;;;;4.05;82.12;101775.90;1707255;82;25803;-81
2022/10/20 03:09:22;;;;;;;11.63;4.95;;;;;;;4.05;82.13;101778.55;1691842;82;25879;-81
2022/10/20 03:11:49;;;;;;;9.95;6.00;;;;;;;4.05;82.22;101778.55;1715065;82;25901;-80
2022/10/20 03:14:15;;;;;;;11.12;5.70;;;;;;;4.05;82.27;101779.88;1697076;82;28281;-81
2022/10/20 03:16:41;;;;;;;12.40;6.05;;;;;;;4.03;81.97;101781.33;1705192;82;25907;-82
2022/10/20 03:19:08;;;;;;;7.47;5.00;;;;;;;4.04;82.05;101791.46;1702802;83;25761;-81
2022/10/20 03:21:34;;;;;;;8.20;5.12;;;;;;;4.01;81.86;101784.58;1699917;83;25795;-80
2022/10/20 03:24:00;;;;;;;7.20;4.78;;;;;;;3.97;81.40;101784.92;1711405;82;25884;-81
2022/10/20 03:26:27;;;;;;;8.25;5.20;;;;;;;3.91;81.07;101783.08;1698446;84;27128;-80
2022/10/20 03:28:53;;;;;;;9.75;4.78;;;;;;;3.87;80.92;101785.60;1705543;83;25295;-80
2022/10/20 03:31:19;;;;;;;9.95;5.53;;;;;;;3.83;80.89;101784.14;1700553;82;25800;-80
2022/10/20 03:33:46;;;;;;;10.05;4.92;;;;;;;3.81;81.18;101779.91;1699753;84;25810;-81
2022/10/20 03:36:12;;;;;;;9.30;5.20;;;;;;;3.80;81.32;101780.42;1701505;84;25809;-81
2022/10/20 03:38:42;;;;;;;8.78;4.80;;;;;;;3.78;81.24;101781.48;1703602;82;27591;-79
2022/10/20 03:41:09;;;;;;;8.95;5.37;;;;;;;3.76;81.04;101786.06;1709719;82;26422;-81
2022/10/20 03:43:35;;;;;;;9.45;5.33;;;;;;;3.71;81.02;101777.13;1690119;83;25820;-81
2022/10/20 03:46:08;;;;;;;13.00;5.97;;;;;;;3.70;80.93;101776.74;1711814;83;25813;-80
2022/10/20 03:48:37;;;;;;;7.70;4.97;;;;;;;3.67;80.83;101788.06;1690857;83;26412;-81
2022/10/20 03:51:05;;;;;;;9.50;5.42;;;;;;;3.62;80.60;101780.92;1734448;81;27469;-79
2022/10/20 03:53:32;;;;;;;10.20;5.37;;;;;;;3.58;80.64;101779.45;1700705;82;25746;-81
2022/10/20 03:55:58;;;;;;;10.63;5.92;;;;;;;3.53;80.77;101782.44;1750897;80;25693;-80
2022/10/20 03:58:24;;;;;;;12.43;6.22;;;;;;;3.53;80.98;101782.44;1750446;80;25820;-81
2022/10/20 04:00:51;;;;;;;9.03;5.22;;;;;;;3.53;81.23;101788.24;1733610;80;26404;-82
2022/10/20 04:03:17;;;;;;;11.85;5.72;;;;;;;3.56;81.27;101794.62;1750258;80;28260;-80
2022/10/20 04:05:43;;;;;;;9.68;6.05;;;;;;;3.55;81.14;101797.74;1689034;83;25966;-81
2022/10/20 04:08:10;;;;;;;10.25;5.90;;;;;;;3.53;81.16;101800.98;1684786;83;26093;-79
2022/10/20 04:10:36;;;;;;;11.60;6.10;;;;;;;3.52;81.11;101797.13;1742386;81;25834;-80
2022/10/20 04:13:03;;;;;;;12.88;6.40;;;;;;;3.51;81.16;101805.55;1747793;81;25298;-79
2022/10/20 04:15:30;;;;;;;11.15;6.10;;;;;;;3.51;81.21;101805.55;1740732;80;27468;-81
2022/10/20 04:17:56;;;;;;;10.78;6.47;;;;;;;3.49;81.19;101800.84;1684990;83;25883;-79
2022/10/20 04:20:22;;;;;;;9.00;5.90;;;;;;;3.47;81.18;101809.38;1695310;83;25814;-79
2022/10/20 04:22:49;;;;;;;11.18;5.92;;;;;;;3.46;81.30;101810.83;1698404;84;27109;-80
2022/10/20 04:25:15;;;;;;;9.90;5.90;;;;;;;3.45;81.28;101811.77;1682717;84;25929;-81
2022/10/20 04:27:42;;;;;;;14.47;5.83;;;;;;;3.44;81.20;101820.22;1689087;84;28253;-80
2022/10/20 04:30:09;;;;;;;9.40;5.72;;;;;;;3.44;81.09;101815.39;1689217;83;25904;-81
2022/10/20 04:32:36;;;;;;;13.90;7.37;;;;;;;3.39;80.96;101816.20;1695804;82;25799;-81
2022/10/20 04:35:03;;;;;;;15.60;7.37;;;;;;;3.36;81.00;101823.06;1696354;83;25871;-81
2022/10/20 04:37:29;;;;;;;14.50;7.15;;;;;;;3.35;81.14;101830.62;1693309;84;25927;-81
2022/10/20 04:39:56;;;;;;;15.48;7.97;;;;;;;3.34;81.36;101816.52;1689787;84;27469;-81
2022/10/20 04:42:23;;;;;;;11.53;7.17;;;;;;;3.33;81.49;101816.17;1695745;83;26150;-79
2022/10/20 04:44:49;;;;;;;16.45;7.65;;;;;;;3.33;81.66;101828.56;1684434;84;25779;-82
2022/10/20 04:47:15;;;;;;;12.68;6.83;;;;;;;3.32;81.92;101822.41;1696904;83;25807;-80
2022/10/20 04:49:42;;;;;;;13.45;7.35;;;;;;;3.35;81.95;101817.38;1659162;83;26401;-83
2022/10/20 04:52:09;;;;;;;16.23;8.33;;;;;;;3.36;81.78;101819.91;1657776;84;28262;-82
2022/10/20 04:54:35;;;;;;;18.73;9.93;;;;;;;3.36;81.63;101813.28;1658146;84;26471;-79
2022/10/20 04:57:03;;;;;;;12.20;7.60;;;;;;;3.35;81.44;101807.64;1657126;84;26156;-80
2022/10/20 04:59:29;;;;;;;13.68;7.50;;;;;;;3.32;81.25;101809.64;1651697;84;25809;-81
2022/10/20 05:01:55;;;;;;;17.17;8.18;;;;;;;3.27;81.22;101808.68;1661562;84;25884;-79
2022/10/20 05:04:21;;;;;;;22.65;8.30;;;;;;;3.24;81.33;101814.18;1655408;84;27466;-80
2022/10/20 05:06:48;;;;;;;25.43;10.93;;;;;;;3.23;81.52;101816.45;1656395;84;25916;-81
2022/10/20 05:09:15;;;;;;;31.02;11.48;;;;;;;3.24;81.89;101820.80;1654519;84;25861;-80
2022/10/20 05:11:41;;;;;;;28.83;9.33;;;;;;;3.26;82.17;101819.36;1650444;84;26317;-79
2022/10/20 05:14:08;;;;;;;21.30;8.00;;;;;;;3.25;81.99;101819.01;1651704;84;26141;-81
2022/10/20 05:16:34;;;;;;;19.87;8.63;;;;;;;3.23;81.94;101823.06;1653038;84;27466;-80
2022/10/20 05:19:00;;;;;;;24.57;7.95;;;;;;;3.22;81.89;101819.21;1657093;84;25843;-81
2022/10/20 05:21:30;;;;;;;17.17;6.95;;;;;;;3.21;81.82;101825.48;1660902;84;25817;-80
2022/10/20 05:24:03;;;;;;;31.40;7.90;;;;;;;3.19;81.78;101828.72;1653903;84;25825;-81
2022/10/20 05:26:35;;;;;;;22.02;8.33;;;;;;;3.17;81.81;101831.45;1653656;84;25328;-80
2022/10/20 05:29:05;;;;;;;16.30;7.62;;;;;;;3.14;81.95;101826.39;1651496;84;27544;-81
2022/10/20 05:31:38;;;;;;;20.00;7.72;;;;;;;3.09;81.96;101822.75;1663443;84;26157;-81
2022/10/20 05:34:05;;;;;;;21.00;8.10;;;;;;;3.07;82.08;101830.42;1660562;84;26680;-83
2022/10/20 05:36:32;;;;;;;17.35;7.85;;;;;;;3.04;82.31;101835.45;1654418;84;25859;-81
2022/10/20 05:38:58;;;;;;;15.60;7.72;;;;;;;3.04;82.66;101840.75;1651330;84;25901;-79
2022/10/20 05:41:28;;;;;;;20.88;9.15;;;;;;;3.05;82.94;101846.42;1653925;84;27457;-79
2022/10/20 05:43:59;;;;;;;18.10;8.97;;;;;;;3.07;83.12;101845.84;1652837;84;25902;-80
2022/10/20 05:46:29;;;;;;;18.50;9.20;;;;;;;3.10;83.37;101836.34;1666911;84;25947;-80
2022/10/20 05:48:59;;;;;;;18.37;9.80;;;;;;;3.14;83.69;101842.28;1681089;84;25767;-81
2022/10/20 05:51:35;;;;;;;24.63;8.53;;;;;;;3.17;83.58;101848.66;1690594;82;26730;-80
2022/10/20 05:54:01;;;;;;;28.98;7.85;;;;;;;3.17;83.43;101851.78;1688577;83;27453;-79
2022/10/20 05:56:30;;;;;;;19.62;7.42;;;;;;;3.16;83.36;101845.66;1689828;83;25821;-80
2022/10/20 05:58:57;;;;;;;27.22;8.10;;;;;;;3.16;83.37;101850.95;1681496;83;25868;-82
2022/10/20 06:01:37;;;;;;;27.62;7.80;;;;;;;3.17;83.39;101848.66;1693038;83;26155;-80
2022/10/20 06:03:58;;;;;;;20.20;7.78;;;;;;;3.19;83.46;101849.90;1693391;82;26348;-79
2022/10/20 06:06:28;;;;;;;21.60;8.50;;;;;;;3.20;83.40;101859.52;1681893;83;27537;-83
2022/10/20 06:08:57;;;;;;;44.88;8.70;;;;;;;3.23;83.42;101864.61;1682601;83;26429;-83
2022/10/20 06:11:25;;;;;;;21.60;8.50;;;;;;;3.21;83.45;101866.02;1691388;82;25777;-79
2022/10/20 06:13:52;;;;;;;25.30;8.38;;;;;;;3.18;83.61;101865.40;1692778;83;26540;-80
2022/10/20 06:16:22;;;;;;;26.75;8.93;;;;;;;3.17;83.80;101862.37;1685697;82;26067;-81
2022/10/20 06:18:49;;;;;;;18.52;8.05;;;;;;;3.19;83.89;101866.61;1696940;83;27466;-81
2022/10/20 06:21:20;;;;;;;14.47;8.10;;;;;;;3.21;84.08;101869.17;1688135;82;26282;-81
2022/10/20 06:23:48;;;;;;;16.67;8.00;;;;;;;3.23;84.09;101872.05;1690606;84;25819;-80
2022/10/20 06:26:18;;;;;;;18.55;8.40;;;;;;;3.25;84.13;101872.78;1695258;82;26211;-80
2022/10/20 06:28:48;;;;;;;17.25;8.40;;;;;;;3.27;84.07;101878.84;1697440;82;25942;-80
2022/10/20 06:31:27;;;;;;;15.15;7.60;;;;;;;3.28;84.01;101880.52;1692206;82;27460;-79
2022/10/20 06:33:54;;;;;;;18.20;7.95;;;;;;;3.28;84.17;101881.84;1690267;83;26105;-81
2022/10/20 06:36:21;;;;;;;14.00;7.90;;;;;;;3.31;84.27;101884.29;1697141;82;25820;-82
2022/10/20 06:38:53;;;;;;;17.07;7.37;;;;;;;3.32;84.20;101882.46;1686320;83;25821;-80
2022/10/20 06:41:20;;;;;;;14.93;7.92;;;;;;;3.35;84.22;101886.23;1686989;83;25871;-80
2022/10/20 06:43:46;;;;;;;18.02;9.23;;;;;;;3.36;84.33;101894.56;1679216;83;27079;-80
2022/10/20 06:46:17;;;;;;;20.32;9.83;;;;;;;3.36;84.68;101892.73;1686201;82;25844;-80
2022/10/20 06:48:44;;;;;;;18.77;10.28;;;;;;;3.41;85.14;101895.06;1690618;83;25945;-80
2022/10/20 06:51:13;;;;;;;32.70;10.23;;;;;;;3.45;85.42;101891.23;1688384;83;25773;-82
2022/10/20 06:53:42;;;;;;;14.38;8.48;;;;;;;3.48;85.58;101893.20;1689468;83;25861;-79
2022/10/20 06:56:14;;;;;;;28.45;9.63;;;;;;;3.52;85.79;101888.52;1696439;82;28379;-81
2022/10/20 06:58:43;;;;;;;21.23;8.70;;;;;;;3.57;85.85;101899.14;1690465;83;25768;-80
2022/10/20 07:01:16;;;;;;;19.05;8.43;;;;;;;3.60;85.87;101888.34;1689129;84;25274;-80
2022/10/20 07:03:45;;;;;;;21.12;9.40;;;;;;;3.59;85.75;101893.75;1696408;84;25802;-81
2022/10/20 07:06:16;;;;;;;23.47;10.05;;;;;;;3.57;85.87;101899.64;1697172;84;25617;-80
2022/10/20 07:08:42;;;;;;;;;;;;;;;3.61;86.17;101902.44;1699068;84;27477;-80
2022/10/20 07:11:16;;;;;;;38.30;9.85;;;;;;;3.65;86.37;101900.78;1713149;83;26718;-80
2022/10/20 07:13:43;;;;;;;28.47;9.80;;;;;;;3.63;86.41;101901.84;1697043;83;25946;-80
2022/10/20 07:16:13;;;;;;;31.52;9.63;;;;;;;3.61;86.52;101905.09;1699332;82;25756;-80
2022/10/20 07:18:40;;;;;;;15.40;9.85;;;;;;;3.62;86.78;101916.03;1683661;83;26790;-80
2022/10/20 07:21:19;;;;;;;17.98;10.15;;;;;;;3.62;87.06;101906.77;1687020;82;26940;-80
2022/10/20 07:23:47;;;;;;;37.17;11.25;;;;;;;3.68;87.51;101915.59;1688497;82;25854;-80
2022/10/20 07:26:20;;;;;;;30.52;12.40;;;;;;;3.73;87.79;101916.11;1682316;84;26574;-79
2022/10/20 07:28:51;;;;;;;32.10;12.53;;;;;;;3.76;88.15;101914.08;1697373;82;25774;-79
2022/10/20 07:31:25;;;;;;;29.87;12.95;;;;;;;3.84;88.45;101924.14;1680721;83;25765;-78
2022/10/20 07:33:52;;;;;;;30.75;13.95;;;;;;;3.93;88.87;101919.50;1695846;83;27494;-79
2022/10/20 07:36:23;;;;;;;28.52;16.48;;;;;;;4.01;89.32;101926.88;1693896;82;26524;-80
2022/10/20 07:38:56;;;;;;;39.38;14.60;;;;;;;4.04;89.60;101918.24;1692622;82;25821;-79
2022/10/20 07:41:23;;;;;;;38.78;16.75;;;;;;;4.12;89.65;101922.97;1692048;83;26491;-80
2022/10/20 07:43:51;;;;;;;28.50;14.98;;;;;;;4.20;89.93;101928.55;1686258;83;25778;-80
2022/10/20 07:46:17;;;;;;;44.08;15.58;;;;;;;4.26;90.22;101930.26;1695383;83;27462;-79
2022/10/20 07:48:44;;;;;;;30.88;15.20;;;;;;;4.31;90.23;101932.58;1689455;82;26144;-81
2022/10/20 07:51:27;;;;;;;122.87;52.65;;;;;;;4.36;90.29;101933.91;1695988;82;25308;-79
2022/10/20 07:54:01;;;;;;;43.20;20.17;;;;;;;4.44;90.53;101932.03;1695329;83;26239;-78
2022/10/20 07:56:31;;;;;;;130.47;61.98;;;;;;;4.50;90.77;101935.54;1696910;84;26158;-79
2022/10/20 07:58:58;;;;;;;81.95;43.85;;;;;;;4.58;91.00;101934.00;1695821;82;27464;-79
2022/10/20 08:01:24;;;;;;;43.75;27.13;;;;;;;4.66;91.37;101934.27;1695347;84;25809;-78
2022/10/20 08:03:51;;;;;;;56.77;28.50;;;;;;;4.76;91.67;101928.27;1689558;83;25300;-80
2022/10/20 08:06:17;;;;;;;110.88;47.40;;;;;;;4.84;91.91;101933.34;1691115;83;25774;-78
2022/10/20 08:08:44;;;;;;;53.30;28.52;;;;;;;4.94;92.26;101938.30;1686494;83;25919;-79
2022/10/20 08:11:11;;;;;;;38.00;20.30;;;;;;;5.04;92.55;101935.80;1694974;82;28254;-80
2022/10/20 08:13:39;;;;;;;35.17;18.85;;;;;;;5.12;92.44;101940.03;1685894;83;25774;-80
2022/10/20 08:16:07;;;;;;;32.08;18.25;;;;;;;5.16;92.45;101935.70;1703988;82;25712;-79
2022/10/20 08:18:34;;;;;;;42.70;22.67;;;;;;;5.23;92.89;101936.06;1683507;83;25890;-79
2022/10/20 08:21:20;;;;;;;97.47;49.45;;;;;;;5.31;93.19;101938.48;1702224;82;25768;-80
2022/10/20 08:23:48;;;;;;;41.28;24.40;;;;;;;5.40;93.33;101922.30;1691290;82;27466;-79
2022/10/20 08:26:23;;;;;;;36.85;20.80;;;;;;;5.51;93.67;101923.62;1697305;82;25783;-80
2022/10/20 08:28:53;;;;;;;31.30;20.43;;;;;;;5.61;93.93;101929.04;1647574;84;26523;-81
2022/10/20 08:31:20;;;;;;;31.85;20.48;;;;;;;5.71;93.98;101927.36;1698192;82;25836;-77
2022/10/20 08:33:46;;;;;;;32.00;18.95;;;;;;;5.81;94.09;101924.31;1685221;83;25808;-77
2022/10/20 08:36:14;;;;;;;28.83;18.52;;;;;;;5.89;94.01;101917.91;1688438;83;27568;-82
2022/10/20 08:38:41;;;;;;;25.60;16.48;;;;;;;5.98;94.17;101922.02;1685640;83;25832;-81
2022/10/20 08:41:17;;;;;;;23.22;14.75;;;;;;;6.07;94.08;101917.75;1696091;82;25319;-82
2022/10/20 08:43:47;;;;;;;31.33;15.98;;;;;;;6.15;93.99;101921.95;1688873;82;26321;-84
2022/10/20 08:46:16;;;;;;;25.52;14.90;;;;;;;6.26;94.17;101925.05;1688032;83;25947;-82
2022/10/20 08:48:44;;;;;;;23.05;14.00;;;;;;;6.33;94.22;101921.75;1690970;83;27484;-82
2022/10/20 08:51:21;;;;;;;40.58;24.32;;;;;;;6.41;94.32;101922.45;1683049;83;25333;-83
2022/10/20 08:53:52;;;;;;;22.60;12.33;;;;;;;6.49;94.41;101919.52;1682788;83;25709;-84
2022/10/20 08:56:23;;;;;;;21.02;9.65;;;;;;;6.60;94.69;101920.80;1694500;82;26438;-83
2022/10/20 08:58:50;;;;;;;28.15;18.25;;;;;;;6.70;94.19;101919.03;1689989;83;33340;-84
2022/10/20 09:01:24;;;;;;;19.20;12.45;;;;;;;6.80;94.24;101909.80;1673697;84;27647;-83
2022/10/20 09:04:13;;;;;;;21.42;15.50;;;;;;;6.89;94.23;101914.31;1693367;83;26540;-83
2022/10/20 09:06:42;;;;;;;18.17;8.88;;;;;;;6.97;93.93;101920.67;1689576;83;25784;-80
2022/10/20 09:09:15;;;;;;;17.27;10.00;;;;;;;7.08;93.76;101925.08;1692707;82;26578;-83
2022/10/20 09:11:43;;;;;;;13.05;9.13;;;;;;;7.17;93.44;101914.11;1670580;84;25372;-80
2022/10/20 09:14:11;;;;;;;12.90;7.85;;;;;;;7.25;93.34;101913.80;1688657;82;27476;-83
2022/10/20 09:16:41;;;;;;;14.47;8.88;;;;;;;7.34;93.02;101922.81;1693802;82;25704;-87
2022/10/20 09:19:19;;;;;;;11.50;8.85;;;;;;;7.42;93.19;101916.36;1649655;84;25827;-85
2022/10/20 09:21:53;;;;;;;12.60;8.68;;;;;;;7.50;92.93;101915.19;1689918;83;26535;-84
2022/10/20 09:24:21;;;;;;;12.15;8.48;;;;;;;7.59;92.78;101912.53;1681965;83;25897;-87
2022/10/20 09:26:50;;;;;;;9.58;6.22;;;;;;;7.68;92.78;101913.55;1680470;83;27521;-87
2022/10/20 09:29:20;;;;;;;7.58;5.22;;;;;;;7.77;92.70;101914.91;1670360;83;26396;-87
2022/10/20 09:31:54;;;;;;;8.73;5.20;;;;;;;7.88;92.72;101912.63;1674434;84;25731;-87
2022/10/20 09:34:33;;;;;;;5.42;3.35;;;;;;;7.99;92.11;101914.33;1699803;82;25814;-87
2022/10/20 09:37:11;;;;;;;5.53;3.95;;;;;;;8.06;91.28;101909.61;1687327;82;25792;-86
2022/10/20 09:39:56;;;;;;;7.00;4.37;;;;;;;8.15;90.47;101909.27;1691147;83;27982;-90
2022/10/20 09:42:33;;;;;;;5.12;3.72;;;;;;;8.25;90.46;101920.38;1695359;82;25281;-87
2022/10/20 09:45:04;;;;;;;6.75;4.12;;;;;;;8.38;90.32;101918.23;1688384;83;25514;-87
2022/10/20 09:47:37;;;;;;;5.75;3.00;;;;;;;8.48;90.15;101920.92;1695812;82;26680;-88
2022/10/20 09:50:07;;;;;;;3.92;2.50;;;;;;;8.61;89.85;101917.96;1707022;82;25970;-83
2022/10/20 09:52:46;;;;;;;4.03;2.17;;;;;;;8.72;89.04;101911.13;1700711;83;28242;-86
2022/10/20 09:55:25;;;;;;;6.28;3.17;;;;;;;8.81;89.07;101911.63;1723069;81;26338;-80
2022/10/20 09:57:55;;;;;;;13.22;6.35;;;;;;;8.92;89.54;101910.09;1708206;83;26444;-86
2022/10/20 10:00:34;;;;;;;386.10;163.68;;;;;;;9.05;88.98;101907.47;1722217;83;25784;-87
2022/10/20 10:03:20;;;;;;;448.00;252.78;;;;;;;9.11;88.29;101904.20;1722166;83;25810;-85
2022/10/20 10:05:58;;;;;;;99.80;61.55;;;;;;;9.18;87.96;101895.97;1704704;83;27477;-86
2022/10/20 10:08:32;;;;;;;22.02;13.65;;;;;;;9.23;86.99;101900.39;1700762;83;25651;-87
2022/10/20 10:11:14;;;;;;;15.13;8.23;;;;;;;9.26;86.94;101894.73;1717421;83;25352;-85
2022/10/20 10:13:50;;;;;;;7.65;4.90;;;;;;;9.29;86.82;101890.92;1706368;83;25957;-85
2022/10/20 10:16:19;;;;;;;9.35;4.40;;;;;;;9.28;86.21;101888.73;1698958;83;25831;-82
2022/10/20 10:19:00;;;;;;;6.17;4.28;;;;;;;9.28;86.01;101888.73;1719636;83;27465;-80
2022/10/20 10:21:30;;;;;;;7.67;4.60;;;;;;;9.27;85.65;101888.41;1713130;81;25806;-81
2022/10/20 10:24:01;;;;;;;7.90;3.87;;;;;;;9.28;85.94;101881.23;1705880;83;26187;-81
2022/10/20 10:26:47;;;;;;;9.28;4.45;;;;;;;9.31;85.93;101883.59;1705412;81;26039;-83
2022/10/20 10:29:30;;;;;;;6.25;3.72;;;;;;;9.33;85.44;101882.47;1685850;81;25954;-81
2022/10/20 10:32:09;;;;;;;4.28;3.12;;;;;;;9.34;85.10;101877.45;1738978;81;27426;-82
2022/10/20 10:35:06;;;;;;;5.50;3.52;;;;;;;9.34;84.32;101878.78;1713994;81;25949;-83
2022/10/20 10:37:34;;;;;;;5.58;2.87;;;;;;;9.34;83.96;101877.45;1707324;81;25836;-82
2022/10/20 10:40:14;;;;;;;7.70;2.87;;;;;;;9.37;83.99;101874.98;1723846;81;25852;-82
2022/10/20 10:42:55;;;;;;;2.70;2.12;;;;;;;9.39;83.46;101878.34;1718411;81;25803;-82
2022/10/20 10:45:43;;;;;;;;;;;;;;;9.43;83.49;101868.22;1715173;81;27961;-80
2022/10/20 10:48:36;;;;;;;5.75;2.67;;;;;;;9.48;82.75;101872.12;1725005;81;25933;-81
2022/10/20 10:51:32;;;;;;;2.42;2.08;;;;;;;9.51;82.27;101866.97;1723848;81;25556;-83
2022/10/20 10:54:26;;;;;;;3.52;2.30;;;;;;;9.52;82.01;101868.16;1712503;83;25867;-84
2022/10/20 10:56:58;;;;;;;3.17;2.20;;;;;;;9.57;82.20;101864.55;1715818;82;25845;-85
2022/10/20 10:59:37;;;;;;;3.02;2.10;;;;;;;9.60;81.72;101861.55;1699425;81;27472;-83
2022/10/20 11:02:37;;;;;;;5.42;2.55;;;;;;;9.63;81.67;101859.92;1715174;82;25793;-84
2022/10/20 11:05:24;;;;;;;2.70;2.02;;;;;;;9.67;81.45;101850.61;1719193;81;26228;-83
2022/10/20 11:08:34;;;;;;;2.65;1.72;;;;;;;9.71;80.62;101847.16;1635208;86;26648;-81
2022/10/20 11:11:27;;;;;;;1.92;1.30;;;;;;;9.73;80.35;101847.32;1711600;82;25323;-84
2022/10/20 11:14:19;;;;;;;3.15;1.90;;;;;;;9.74;79.74;101840.14;1706914;82;27292;-84
2022/10/20 11:17:23;;;;;;;5.25;1.50;;;;;;;9.73;79.09;101830.45;1699673;81;26211;-82
2022/10/20 11:20:04;;;;;;;3.33;1.52;;;;;;;9.76;78.74;101827.45;1717552;82;25801;-82
2022/10/20 11:22:58;;;;;;;2.75;1.72;;;;;;;9.79;79.06;101826.67;1692362;83;26178;-83
2022/10/20 11:25:32;;;;;;;2.95;1.57;;;;;;;9.85;78.98;101823.87;1704981;82;25850;-86
2022/10/20 11:27:59;;;;;;;4.17;1.75;;;;;;;9.90;78.39;101824.27;1701649;83;27690;-86
2022/10/20 11:30:26;;;;;;;3.52;1.92;;;;;;;9.93;78.44;101818.10;1532828;83;5001418;-85
2022/10/20 11:33:15;;;;;;;2.95;1.42;;;;;;;9.97;77.87;101819.47;1702500;83;25978;-83
2022/10/20 11:35:59;;;;;;;3.80;1.90;;;;;;;10.02;78.30;101811.84;1703522;83;25783;-84
2022/10/20 11:39:05;;;;;;;2.30;1.80;;;;;;;10.08;77.77;101807.20;1627096;83;717849;-84
2022/10/20 11:41:42;;;;;;;3.12;0.90;;;;;;;10.14;77.90;101807.10;1607648;89;26252;-84
2022/10/20 11:44:22;;;;;;;1.15;0.70;;;;;;;10.14;76.53;101801.74;1621751;87;25876;-81
2022/10/20 11:47:09;;;;;;;2.22;0.98;;;;;;;10.16;75.72;101798.94;1632854;86;26531;-85
2022/10/20 11:49:38;;;;;;;2.15;0.70;;;;;;;10.16;74.37;101797.08;1627599;86;26342;-87